sensor_id;sensor_type;location;lat;lon;timestamp;pressure;altitude;pressure_sealevel;temperature;humidity
51289;BME280;37372;52.294;5.152;2023-02-11T00:00:57;103424.56;;;6.00;100.00
51289;BME280;37372;52.294;5.152;2023-02-11T00:03:22;103425.47;;;5.87;100.00
51289;BME280;37372;52.294;5.152;2023-02-11T00:05:58;103418.91;;;5.83;100.00
51289;BME280;37372;52.294;5.152;2023-02-11T00:08:24;103415.72;;;5.98;100.00
51289;BME280;37372;52.294;5.152;2023-02-11T00:10:52;103413.06;;;5.93;100.00
51289;BME280;37372;52.294;5.152;2023-02-11T00:13:17;103403.47;;;5.77;100.00
51289;BME280;37372;52.294;5.152;2023-02-11T00:15:42;103400.00;;;5.71;100.00
51289;BME280;37372;52.294;5.152;2023-02-11T00:18:08;103404.47;;;5.81;100.00
51289;BME280;37372;52.294;5.152;2023-02-11T00:20:33;103417.84;;;5.70;100.00
51289;BME280;37372;52.294;5.152;2023-02-11T00:22:58;103420.00;;;5.73;100.00
51289;BME280;37372;52.294;5.152;2023-02-11T00:25:24;103419.34;;;5.76;100.00
51289;BME280;37372;52.294;5.152;2023-02-11T00:27:49;103427.16;;;5.65;100.00
51289;BME280;37372;52.294;5.152;2023-02-11T00:30:14;103440.00;;;5.75;100.00
51289;BME280;37372;52.294;5.152;2023-02-11T00:32:40;103434.38;;;5.66;100.00
51289;BME280;37372;52.294;5.152;2023-02-11T00:35:06;103426.78;;;5.58;100.00
51289;BME280;37372;52.294;5.152;2023-02-11T00:37:32;103432.22;;;5.63;100.00
51289;BME280;37372;52.294;5.152;2023-02-11T00:40:02;103429.84;;;5.48;100.00
51289;BME280;37372;52.294;5.152;2023-02-11T00:42:27;103423.44;;;5.48;100.00
51289;BME280;37372;52.294;5.152;2023-02-11T00:44:53;103417.19;;;5.42;100.00
51289;BME280;37372;52.294;5.152;2023-02-11T00:47:18;103414.75;;;5.49;100.00
51289;BME280;37372;52.294;5.152;2023-02-11T00:49:43;103413.13;;;5.48;100.00
51289;BME280;37372;52.294;5.152;2023-02-11T00:52:09;103410.84;;;5.50;100.00
51289;BME280;37372;52.294;5.152;2023-02-11T00:54:34;103396.03;;;5.41;100.00
51289;BME280;37372;52.294;5.152;2023-02-11T00:57:00;103400.53;;;5.51;100.00
51289;BME280;37372;52.294;5.152;2023-02-11T00:59:25;103398.56;;;5.51;100.00
51289;BME280;37372;52.294;5.152;2023-02-11T01:01:51;103396.44;;;5.48;100.00
51289;BME280;37372;52.294;5.152;2023-02-11T01:04:16;103396.25;;;5.44;100.00
51289;BME280;37372;52.294;5.152;2023-02-11T01:06:42;103389.47;;;5.37;100.00
51289;BME280;37372;52.294;5.152;2023-02-11T01:09:07;103378.09;;;5.47;100.00
51289;BME280;37372;52.294;5.152;2023-02-11T01:11:32;103368.34;;;5.36;100.00
51289;BME280;37372;52.294;5.152;2023-02-11T01:13:57;103374.56;;;5.33;100.00
51289;BME280;37372;52.294;5.152;2023-02-11T01:16:23;103378.09;;;5.25;100.00
51289;BME280;37372;52.294;5.152;2023-02-11T01:18:48;103380.81;;;5.16;100.00
51289;BME280;37372;52.294;5.152;2023-02-11T01:21:14;103390.44;;;5.10;100.00
51289;BME280;37372;52.294;5.152;2023-02-11T01:23:40;103409.84;;;5.23;100.00
51289;BME280;37372;52.294;5.152;2023-02-11T01:26:05;103412.63;;;5.23;100.00
51289;BME280;37372;52.294;5.152;2023-02-11T01:28:31;103417.19;;;5.19;100.00
51289;BME280;37372;52.294;5.152;2023-02-11T01:30:59;103408.31;;;5.17;100.00
51289;BME280;37372;52.294;5.152;2023-02-11T01:33:25;103398.19;;;5.21;100.00
51289;BME280;37372;52.294;5.152;2023-02-11T01:35:50;103395.09;;;5.23;100.00
51289;BME280;37372;52.294;5.152;2023-02-11T01:38:24;103393.78;;;5.20;100.00
51289;BME280;37372;52.294;5.152;2023-02-11T01:40:53;103394.53;;;5.12;100.00
51289;BME280;37372;52.294;5.152;2023-02-11T01:43:19;103389.53;;;5.23;100.00
51289;BME280;37372;52.294;5.152;2023-02-11T01:48:18;103390.34;;;5.01;100.00
51289;BME280;37372;52.294;5.152;2023-02-11T01:50:49;103389.00;;;4.98;100.00
51289;BME280;37372;52.294;5.152;2023-02-11T01:53:16;103395.03;;;4.92;100.00
51289;BME280;37372;52.294;5.152;2023-02-11T01:56:02;103400.84;;;4.82;100.00
51289;BME280;37372;52.294;5.152;2023-02-11T01:58:46;103401.88;;;4.72;100.00
51289;BME280;37372;52.294;5.152;2023-02-11T02:01:15;103398.41;;;4.66;100.00
51289;BME280;37372;52.294;5.152;2023-02-11T02:03:44;103398.19;;;4.63;100.00
51289;BME280;37372;52.294;5.152;2023-02-11T02:06:25;103394.06;;;4.60;100.00
51289;BME280;37372;52.294;5.152;2023-02-11T02:09:01;103389.16;;;4.57;100.00
51289;BME280;37372;52.294;5.152;2023-02-11T02:11:28;103385.03;;;4.54;100.00
51289;BME280;37372;52.294;5.152;2023-02-11T02:13:53;103387.63;;;4.51;100.00
51289;BME280;37372;52.294;5.152;2023-02-11T02:16:20;103398.53;;;4.47;100.00
51289;BME280;37372;52.294;5.152;2023-02-11T02:19:01;103394.94;;;4.47;100.00
51289;BME280;37372;52.294;5.152;2023-02-11T02:30:23;103375.00;;;4.31;100.00
51289;BME280;37372;52.294;5.152;2023-02-11T02:35:40;103369.22;;;4.27;100.00
51289;BME280;37372;52.294;5.152;2023-02-11T02:38:12;103364.91;;;4.21;100.00
51289;BME280;37372;52.294;5.152;2023-02-11T02:41:10;103371.81;;;4.24;100.00
51289;BME280;37372;52.294;5.152;2023-02-11T02:43:42;103378.19;;;4.24;100.00
51289;BME280;37372;52.294;5.152;2023-02-11T02:46:24;103375.81;;;4.31;100.00
51289;BME280;37372;52.294;5.152;2023-02-11T02:48:51;103379.09;;;4.33;100.00
51289;BME280;37372;52.294;5.152;2023-02-11T03:02:35;103370.06;;;4.28;100.00
51289;BME280;37372;52.294;5.152;2023-02-11T03:05:10;103371.06;;;4.32;100.00
51289;BME280;37372;52.294;5.152;2023-02-11T03:07:43;103365.22;;;4.33;100.00
51289;BME280;37372;52.294;5.152;2023-02-11T03:10:14;103367.28;;;4.28;100.00
51289;BME280;37372;52.294;5.152;2023-02-11T03:12:43;103363.56;;;4.19;100.00
51289;BME280;37372;52.294;5.152;2023-02-11T03:15:10;103364.50;;;4.14;100.00
51289;BME280;37372;52.294;5.152;2023-02-11T03:17:38;103361.19;;;4.12;100.00
51289;BME280;37372;52.294;5.152;2023-02-11T03:20:05;103359.16;;;4.04;100.00
51289;BME280;37372;52.294;5.152;2023-02-11T03:22:39;103360.28;;;4.03;100.00
51289;BME280;37372;52.294;5.152;2023-02-11T03:25:06;103354.22;;;4.01;100.00
51289;BME280;37372;52.294;5.152;2023-02-11T03:27:45;103351.53;;;3.96;100.00
51289;BME280;37372;52.294;5.152;2023-02-11T03:30:42;103349.91;;;3.95;100.00
51289;BME280;37372;52.294;5.152;2023-02-11T03:33:26;103349.06;;;3.94;100.00
51289;BME280;37372;52.294;5.152;2023-02-11T03:35:57;103344.13;;;3.91;100.00
51289;BME280;37372;52.294;5.152;2023-02-11T03:38:29;103335.94;;;4.00;100.00
51289;BME280;37372;52.294;5.152;2023-02-11T03:40:56;103336.41;;;4.02;100.00
51289;BME280;37372;52.294;5.152;2023-02-11T03:43:39;103331.19;;;4.00;100.00
51289;BME280;37372;52.294;5.152;2023-02-11T03:46:07;103325.63;;;4.00;100.00
51289;BME280;37372;52.294;5.152;2023-02-11T03:48:39;103342.91;;;4.11;100.00
51289;BME280;37372;52.294;5.152;2023-02-11T03:51:08;103338.97;;;4.12;100.00
51289;BME280;37372;52.294;5.152;2023-02-11T03:53:36;103347.81;;;4.14;100.00
51289;BME280;37372;52.294;5.152;2023-02-11T03:56:05;103350.41;;;4.10;100.00
51289;BME280;37372;52.294;5.152;2023-02-11T03:58:31;103358.94;;;4.14;100.00
51289;BME280;37372;52.294;5.152;2023-02-11T04:00:56;103351.84;;;4.22;100.00
51289;BME280;37372;52.294;5.152;2023-02-11T04:03:21;103346.78;;;4.24;100.00
51289;BME280;37372;52.294;5.152;2023-02-11T04:05:47;103340.19;;;4.33;100.00
51289;BME280;37372;52.294;5.152;2023-02-11T04:08:12;103335.66;;;4.38;100.00
51289;BME280;37372;52.294;5.152;2023-02-11T04:10:38;103333.16;;;4.50;100.00
51289;BME280;37372;52.294;5.152;2023-02-11T04:13:03;103347.03;;;4.50;100.00
51289;BME280;37372;52.294;5.152;2023-02-11T04:15:29;103337.88;;;4.63;100.00
51289;BME280;37372;52.294;5.152;2023-02-11T04:17:54;103343.78;;;4.70;100.00
51289;BME280;37372;52.294;5.152;2023-02-11T04:20:19;103334.44;;;4.66;100.00
51289;BME280;37372;52.294;5.152;2023-02-11T04:22:45;103333.44;;;4.62;100.00
51289;BME280;37372;52.294;5.152;2023-02-11T04:25:10;103329.19;;;4.65;100.00
51289;BME280;37372;52.294;5.152;2023-02-11T04:27:36;103330.00;;;4.65;100.00
51289;BME280;37372;52.294;5.152;2023-02-11T04:30:02;103339.81;;;4.63;100.00
51289;BME280;37372;52.294;5.152;2023-02-11T04:32:28;103343.44;;;4.63;100.00
51289;BME280;37372;52.294;5.152;2023-02-11T04:34:53;103344.53;;;4.76;100.00
51289;BME280;37372;52.294;5.152;2023-02-11T04:37:20;103347.59;;;4.74;100.00
51289;BME280;37372;52.294;5.152;2023-02-11T04:39:45;103354.69;;;4.81;100.00
51289;BME280;37372;52.294;5.152;2023-02-11T04:42:10;103350.09;;;4.76;100.00
51289;BME280;37372;52.294;5.152;2023-02-11T04:44:36;103360.88;;;4.77;100.00
51289;BME280;37372;52.294;5.152;2023-02-11T04:47:01;103365.78;;;4.81;100.00
51289;BME280;37372;52.294;5.152;2023-02-11T04:49:27;103368.81;;;4.70;100.00
51289;BME280;37372;52.294;5.152;2023-02-11T04:51:52;103366.38;;;4.69;100.00
51289;BME280;37372;52.294;5.152;2023-02-11T04:54:17;103369.22;;;4.77;100.00
51289;BME280;37372;52.294;5.152;2023-02-11T04:56:44;103383.50;;;4.85;100.00
51289;BME280;37372;52.294;5.152;2023-02-11T04:59:10;103377.25;;;4.79;100.00
51289;BME280;37372;52.294;5.152;2023-02-11T05:01:37;103377.56;;;4.77;100.00
51289;BME280;37372;52.294;5.152;2023-02-11T05:04:03;103372.91;;;4.87;100.00
51289;BME280;37372;52.294;5.152;2023-02-11T05:06:28;103369.31;;;4.86;100.00
51289;BME280;37372;52.294;5.152;2023-02-11T05:08:54;103367.47;;;4.82;100.00
51289;BME280;37372;52.294;5.152;2023-02-11T05:11:21;103368.34;;;4.91;100.00
51289;BME280;37372;52.294;5.152;2023-02-11T05:13:47;103359.69;;;4.92;100.00
51289;BME280;37372;52.294;5.152;2023-02-11T05:16:13;103370.13;;;4.87;100.00
51289;BME280;37372;52.294;5.152;2023-02-11T05:18:40;103366.53;;;4.86;100.00
51289;BME280;37372;52.294;5.152;2023-02-11T05:21:08;103369.47;;;4.90;100.00
51289;BME280;37372;52.294;5.152;2023-02-11T05:23:34;103363.53;;;4.83;100.00
51289;BME280;37372;52.294;5.152;2023-02-11T05:26:00;103364.56;;;4.87;100.00
51289;BME280;37372;52.294;5.152;2023-02-11T05:28:26;103370.31;;;4.90;100.00
51289;BME280;37372;52.294;5.152;2023-02-11T05:30:52;103358.78;;;4.83;100.00
51289;BME280;37372;52.294;5.152;2023-02-11T05:33:18;103360.75;;;4.83;100.00
51289;BME280;37372;52.294;5.152;2023-02-11T05:35:43;103360.56;;;4.79;100.00
51289;BME280;37372;52.294;5.152;2023-02-11T05:38:09;103359.19;;;4.90;100.00
51289;BME280;37372;52.294;5.152;2023-02-11T05:40:34;103364.03;;;4.85;100.00
51289;BME280;37372;52.294;5.152;2023-02-11T05:42:59;103356.72;;;4.89;100.00
51289;BME280;37372;52.294;5.152;2023-02-11T05:45:25;103364.03;;;4.85;100.00
51289;BME280;37372;52.294;5.152;2023-02-11T05:47:50;103362.47;;;4.92;100.00
51289;BME280;37372;52.294;5.152;2023-02-11T05:50:16;103363.81;;;4.95;100.00
51289;BME280;37372;52.294;5.152;2023-02-11T05:52:41;103363.91;;;4.90;100.00
51289;BME280;37372;52.294;5.152;2023-02-11T05:55:06;103364.31;;;4.97;100.00
51289;BME280;37372;52.294;5.152;2023-02-11T05:57:32;103366.59;;;4.95;100.00
51289;BME280;37372;52.294;5.152;2023-02-11T05:59:57;103367.28;;;5.00;100.00
51289;BME280;37372;52.294;5.152;2023-02-11T06:02:23;103372.16;;;4.95;100.00
51289;BME280;37372;52.294;5.152;2023-02-11T06:04:48;103366.47;;;5.00;100.00
51289;BME280;37372;52.294;5.152;2023-02-11T06:07:13;103379.03;;;4.97;100.00
51289;BME280;37372;52.294;5.152;2023-02-11T06:09:39;103384.91;;;4.96;100.00
51289;BME280;37372;52.294;5.152;2023-02-11T06:12:04;103376.44;;;5.01;100.00
51289;BME280;37372;52.294;5.152;2023-02-11T06:14:32;103377.59;;;5.00;100.00
51289;BME280;37372;52.294;5.152;2023-02-11T06:16:57;103384.28;;;4.99;100.00
51289;BME280;37372;52.294;5.152;2023-02-11T06:19:23;103388.72;;;5.00;100.00
51289;BME280;37372;52.294;5.152;2023-02-11T06:21:48;103389.22;;;5.02;100.00
51289;BME280;37372;52.294;5.152;2023-02-11T06:24:14;103380.50;;;5.17;100.00
51289;BME280;37372;52.294;5.152;2023-02-11T06:26:39;103377.16;;;5.07;100.00
51289;BME280;37372;52.294;5.152;2023-02-11T06:29:04;103381.31;;;5.18;100.00
51289;BME280;37372;52.294;5.152;2023-02-11T06:31:30;103375.75;;;5.18;100.00
51289;BME280;37372;52.294;5.152;2023-02-11T06:33:55;103368.16;;;5.32;100.00
51289;BME280;37372;52.294;5.152;2023-02-11T06:36:21;103373.16;;;5.21;100.00
51289;BME280;37372;52.294;5.152;2023-02-11T06:38:47;103372.84;;;5.23;100.00
51289;BME280;37372;52.294;5.152;2023-02-11T06:41:14;103366.84;;;5.30;100.00
51289;BME280;37372;52.294;5.152;2023-02-11T06:43:41;103370.63;;;5.34;100.00
51289;BME280;37372;52.294;5.152;2023-02-11T06:46:07;103369.78;;;5.33;100.00
51289;BME280;37372;52.294;5.152;2023-02-11T06:48:33;103376.06;;;5.39;100.00
51289;BME280;37372;52.294;5.152;2023-02-11T06:51:03;103374.81;;;5.22;100.00
51289;BME280;37372;52.294;5.152;2023-02-11T06:53:29;103378.28;;;5.28;100.00
51289;BME280;37372;52.294;5.152;2023-02-11T06:55:55;103381.88;;;5.29;100.00
51289;BME280;37372;52.294;5.152;2023-02-11T06:58:20;103376.94;;;5.26;100.00
51289;BME280;37372;52.294;5.152;2023-02-11T07:00:45;103376.13;;;5.25;100.00
51289;BME280;37372;52.294;5.152;2023-02-11T07:03:11;103372.41;;;5.30;100.00
51289;BME280;37372;52.294;5.152;2023-02-11T07:05:36;103384.34;;;5.30;100.00
51289;BME280;37372;52.294;5.152;2023-02-11T07:08:03;103379.59;;;5.31;100.00
51289;BME280;37372;52.294;5.152;2023-02-11T07:10:28;103389.63;;;5.32;100.00
51289;BME280;37372;52.294;5.152;2023-02-11T07:12:53;103373.72;;;5.32;100.00
51289;BME280;37372;52.294;5.152;2023-02-11T07:15:19;103386.00;;;5.31;100.00
51289;BME280;37372;52.294;5.152;2023-02-11T07:17:44;103390.09;;;5.34;100.00
51289;BME280;37372;52.294;5.152;2023-02-11T07:20:10;103398.31;;;5.39;100.00
51289;BME280;37372;52.294;5.152;2023-02-11T07:22:36;103399.59;;;5.33;100.00
51289;BME280;37372;52.294;5.152;2023-02-11T07:25:02;103400.41;;;5.33;100.00
51289;BME280;37372;52.294;5.152;2023-02-11T07:27:28;103398.78;;;5.32;100.00
51289;BME280;37372;52.294;5.152;2023-02-11T07:29:53;103406.66;;;5.39;100.00
51289;BME280;37372;52.294;5.152;2023-02-11T07:32:19;103408.59;;;5.30;100.00
51289;BME280;37372;52.294;5.152;2023-02-11T07:34:44;103407.56;;;5.26;100.00
51289;BME280;37372;52.294;5.152;2023-02-11T07:37:12;103401.50;;;5.23;100.00
51289;BME280;37372;52.294;5.152;2023-02-11T07:39:37;103408.06;;;5.28;100.00
51289;BME280;37372;52.294;5.152;2023-02-11T07:42:03;103411.75;;;5.37;100.00
51289;BME280;37372;52.294;5.152;2023-02-11T07:44:29;103410.34;;;5.26;100.00
51289;BME280;37372;52.294;5.152;2023-02-11T07:46:54;103416.44;;;5.28;100.00
51289;BME280;37372;52.294;5.152;2023-02-11T07:49:19;103415.28;;;5.29;100.00
51289;BME280;37372;52.294;5.152;2023-02-11T07:51:45;103418.19;;;5.23;100.00
51289;BME280;37372;52.294;5.152;2023-02-11T07:54:11;103413.13;;;5.26;100.00
51289;BME280;37372;52.294;5.152;2023-02-11T07:56:37;103415.59;;;5.27;100.00
51289;BME280;37372;52.294;5.152;2023-02-11T07:59:02;103414.78;;;5.27;100.00
51289;BME280;37372;52.294;5.152;2023-02-11T08:01:29;103420.34;;;5.27;100.00
51289;BME280;37372;52.294;5.152;2023-02-11T08:03:56;103425.66;;;5.37;100.00
51289;BME280;37372;52.294;5.152;2023-02-11T08:06:23;103429.28;;;5.37;100.00
51289;BME280;37372;52.294;5.152;2023-02-11T08:08:49;103426.78;;;5.36;100.00
51289;BME280;37372;52.294;5.152;2023-02-11T08:13:42;103427.34;;;5.47;100.00
51289;BME280;37372;52.294;5.152;2023-02-11T08:16:08;103425.75;;;5.54;100.00
51289;BME280;37372;52.294;5.152;2023-02-11T08:18:34;103422.00;;;5.50;100.00
51289;BME280;37372;52.294;5.152;2023-02-11T08:21:07;103425.84;;;5.63;100.00
51289;BME280;37372;52.294;5.152;2023-02-11T08:23:35;103426.00;;;5.66;100.00
51289;BME280;37372;52.294;5.152;2023-02-11T08:26:05;103426.53;;;5.69;100.00
51289;BME280;37372;52.294;5.152;2023-02-11T08:28:34;103434.22;;;5.72;100.00
51289;BME280;37372;52.294;5.152;2023-02-11T08:31:26;103435.78;;;5.86;100.00
51289;BME280;37372;52.294;5.152;2023-02-11T08:33:50;103437.38;;;6.01;100.00
51289;BME280;37372;52.294;5.152;2023-02-11T08:36:20;103433.06;;;5.95;100.00
51289;BME280;37372;52.294;5.152;2023-02-11T08:38:45;103441.94;;;5.97;100.00
51289;BME280;37372;52.294;5.152;2023-02-11T08:41:11;103443.09;;;5.96;100.00
51289;BME280;37372;52.294;5.152;2023-02-11T08:43:39;103449.50;;;6.05;100.00
51289;BME280;37372;52.294;5.152;2023-02-11T08:46:06;103458.88;;;6.09;100.00
51289;BME280;37372;52.294;5.152;2023-02-11T08:48:31;103450.22;;;6.20;100.00
51289;BME280;37372;52.294;5.152;2023-02-11T08:50:57;103454.69;;;6.29;100.00
51289;BME280;37372;52.294;5.152;2023-02-11T08:53:23;103457.81;;;6.28;100.00
51289;BME280;37372;52.294;5.152;2023-02-11T08:55:53;103460.81;;;6.40;100.00
51289;BME280;37372;52.294;5.152;2023-02-11T08:58:19;103453.25;;;6.32;100.00
51289;BME280;37372;52.294;5.152;2023-02-11T09:00:45;103457.03;;;6.36;100.00
51289;BME280;37372;52.294;5.152;2023-02-11T09:03:11;103457.03;;;6.36;100.00
51289;BME280;37372;52.294;5.152;2023-02-11T09:05:41;103454.44;;;6.48;100.00
51289;BME280;37372;52.294;5.152;2023-02-11T09:08:07;103449.06;;;6.61;100.00
51289;BME280;37372;52.294;5.152;2023-02-11T09:10:32;103458.22;;;6.52;100.00
51289;BME280;37372;52.294;5.152;2023-02-11T09:12:58;103465.56;;;6.48;100.00
51289;BME280;37372;52.294;5.152;2023-02-11T09:15:24;103470.38;;;6.57;100.00
51289;BME280;37372;52.294;5.152;2023-02-11T09:17:49;103472.03;;;6.58;100.00
51289;BME280;37372;52.294;5.152;2023-02-11T09:20:15;103484.50;;;6.69;100.00
51289;BME280;37372;52.294;5.152;2023-02-11T09:22:40;103482.88;;;6.68;100.00
51289;BME280;37372;52.294;5.152;2023-02-11T09:25:06;103477.28;;;6.68;100.00
51289;BME280;37372;52.294;5.152;2023-02-11T09:27:31;103479.44;;;6.71;100.00
51289;BME280;37372;52.294;5.152;2023-02-11T09:29:56;103480.75;;;6.73;100.00
51289;BME280;37372;52.294;5.152;2023-02-11T09:32:22;103492.25;;;6.81;100.00
51289;BME280;37372;52.294;5.152;2023-02-11T09:34:47;103492.09;;;6.94;100.00
51289;BME280;37372;52.294;5.152;2023-02-11T09:37:13;103491.28;;;6.94;100.00
51289;BME280;37372;52.294;5.152;2023-02-11T09:39:38;103487.84;;;6.88;100.00
51289;BME280;37372;52.294;5.152;2023-02-11T09:42:35;103489.50;;;6.98;100.00
51289;BME280;37372;52.294;5.152;2023-02-11T09:45:03;103487.72;;;7.02;100.00
51289;BME280;37372;52.294;5.152;2023-02-11T09:47:35;103501.31;;;7.04;100.00
51289;BME280;37372;52.294;5.152;2023-02-11T09:50:13;103499.69;;;7.11;100.00
51289;BME280;37372;52.294;5.152;2023-02-11T09:55:17;103511.03;;;7.32;100.00
51289;BME280;37372;52.294;5.152;2023-02-11T09:57:45;103526.47;;;7.30;100.00
51289;BME280;37372;52.294;5.152;2023-02-11T10:03:08;103506.94;;;7.38;100.00
51289;BME280;37372;52.294;5.152;2023-02-11T10:08:33;103526.31;;;7.44;100.00
51289;BME280;37372;52.294;5.152;2023-02-11T10:14:40;103530.25;;;7.43;100.00
51289;BME280;37372;52.294;5.152;2023-02-11T10:17:13;103532.56;;;7.41;100.00
51289;BME280;37372;52.294;5.152;2023-02-11T10:22:11;103532.25;;;7.51;100.00
51289;BME280;37372;52.294;5.152;2023-02-11T10:24:40;103544.72;;;7.45;100.00
51289;BME280;37372;52.294;5.152;2023-02-11T10:27:16;103541.91;;;7.45;100.00
51289;BME280;37372;52.294;5.152;2023-02-11T10:29:54;103554.59;;;7.51;100.00
51289;BME280;37372;52.294;5.152;2023-02-11T10:32:36;103555.41;;;7.51;100.00
51289;BME280;37372;52.294;5.152;2023-02-11T10:35:13;103557.69;;;7.58;100.00
51289;BME280;37372;52.294;5.152;2023-02-11T10:37:39;103567.41;;;7.69;100.00
51289;BME280;37372;52.294;5.152;2023-02-11T10:40:11;103551.13;;;7.80;100.00
51289;BME280;37372;52.294;5.152;2023-02-11T10:42:37;103555.22;;;7.65;100.00
51289;BME280;37372;52.294;5.152;2023-02-11T10:45:04;103552.94;;;7.67;100.00
51289;BME280;37372;52.294;5.152;2023-02-11T10:47:35;103560.16;;;7.59;100.00
51289;BME280;37372;52.294;5.152;2023-02-11T10:50:17;103564.78;;;7.81;100.00
51289;BME280;37372;52.294;5.152;2023-02-11T10:52:43;103556.84;;;7.83;100.00
51289;BME280;37372;52.294;5.152;2023-02-11T10:57:37;103557.00;;;7.96;100.00
51289;BME280;37372;52.294;5.152;2023-02-11T11:00:19;103554.03;;;8.01;100.00
51289;BME280;37372;52.294;5.152;2023-02-11T11:02:52;103558.13;;;8.12;100.00
51289;BME280;37372;52.294;5.152;2023-02-11T11:05:25;103555.31;;;8.30;100.00
51289;BME280;37372;52.294;5.152;2023-02-11T11:08:06;103561.38;;;8.32;100.00
51289;BME280;37372;52.294;5.152;2023-02-11T11:10:39;103566.97;;;8.40;100.00
51289;BME280;37372;52.294;5.152;2023-02-11T11:13:28;103565.78;;;8.50;100.00
51289;BME280;37372;52.294;5.152;2023-02-11T11:18:42;103572.97;;;8.60;100.00
51289;BME280;37372;52.294;5.152;2023-02-11T11:21:25;103572.09;;;8.77;100.00
51289;BME280;37372;52.294;5.152;2023-02-11T11:23:56;103580.16;;;8.78;100.00
51289;BME280;37372;52.294;5.152;2023-02-11T11:26:45;103580.59;;;8.89;100.00
51289;BME280;37372;52.294;5.152;2023-02-11T11:29:14;103590.84;;;9.15;100.00
51289;BME280;37372;52.294;5.152;2023-02-11T11:31:52;103594.66;;;9.31;100.00
51289;BME280;37372;52.294;5.152;2023-02-11T11:34:27;103587.72;;;9.37;100.00
51289;BME280;37372;52.294;5.152;2023-02-11T11:36:55;103593.03;;;9.30;100.00
51289;BME280;37372;52.294;5.152;2023-02-11T11:41:52;103598.81;;;9.04;100.00
51289;BME280;37372;52.294;5.152;2023-02-11T11:44:25;103592.38;;;9.03;100.00
51289;BME280;37372;52.294;5.152;2023-02-11T11:52:17;103604.03;;;9.14;100.00
51289;BME280;37372;52.294;5.152;2023-02-11T11:54:47;103604.53;;;9.07;100.00
51289;BME280;37372;52.294;5.152;2023-02-11T11:57:21;103600.84;;;9.16;100.00
51289;BME280;37372;52.294;5.152;2023-02-11T11:59:49;103595.72;;;9.47;100.00
51289;BME280;37372;52.294;5.152;2023-02-11T12:02:44;103590.59;;;9.49;100.00
51289;BME280;37372;52.294;5.152;2023-02-11T12:07:48;103582.88;;;9.67;100.00
51289;BME280;37372;52.294;5.152;2023-02-11T12:13:03;103581.03;;;10.05;100.00
51289;BME280;37372;52.294;5.152;2023-02-11T12:15:37;103595.56;;;10.52;100.00
51289;BME280;37372;52.294;5.152;2023-02-11T12:24:07;103484.31;;;10.45;63.38
51289;BME280;37372;52.294;5.152;2023-02-11T12:29:20;103487.25;;;10.18;65.67
51289;BME280;37372;52.294;5.152;2023-02-11T12:35:13;103489.06;;;9.83;67.26
51289;BME280;37372;52.294;5.152;2023-02-11T12:40:44;103486.03;;;9.86;67.12
51289;BME280;37372;52.294;5.152;2023-02-11T12:56:46;103484.38;;;9.93;66.77
51289;BME280;37372;52.294;5.152;2023-02-11T12:59:25;103484.88;;;9.71;67.85
51289;BME280;37372;52.294;5.152;2023-02-11T13:01:55;103488.97;;;9.67;67.75
51289;BME280;37372;52.294;5.152;2023-02-11T13:04:31;103491.28;;;9.54;68.48
51289;BME280;37372;52.294;5.152;2023-02-11T13:07:13;103480.84;;;9.57;67.79
51289;BME280;37372;52.294;5.152;2023-02-11T13:10:21;103483.84;;;9.72;68.13
51289;BME280;37372;52.294;5.152;2023-02-11T13:12:49;103477.84;;;9.94;67.28
51289;BME280;37372;52.294;5.152;2023-02-11T13:15:35;103475.84;;;9.78;67.84
51289;BME280;37372;52.294;5.152;2023-02-11T13:18:21;103470.75;;;9.84;68.18
51289;BME280;37372;52.294;5.152;2023-02-11T13:23:45;103465.47;;;9.90;67.36
51289;BME280;37372;52.294;5.152;2023-02-11T13:31:51;103459.53;;;9.69;67.92
51289;BME280;37372;52.294;5.152;2023-02-11T13:37:33;103463.88;;;9.80;67.37
51289;BME280;37372;52.294;5.152;2023-02-11T13:40:21;103453.22;;;9.76;67.61
51289;BME280;37372;52.294;5.152;2023-02-11T13:42:57;103464.03;;;9.78;67.55
51289;BME280;37372;52.294;5.152;2023-02-11T13:47:55;103469.72;;;9.85;68.11
51289;BME280;37372;52.294;5.152;2023-02-11T13:50:23;103461.72;;;9.91;66.24
51289;BME280;37372;52.294;5.152;2023-02-11T13:52:56;103464.72;;;10.06;66.25
51289;BME280;37372;52.294;5.152;2023-02-11T13:55:23;103470.78;;;10.18;65.62
51289;BME280;37372;52.294;5.152;2023-02-11T14:30:28;103475.06;;;9.86;67.31
51289;BME280;37372;52.294;5.152;2023-02-11T14:36:29;103467.84;;;10.11;65.61
51289;BME280;37372;52.294;5.152;2023-02-11T14:39:20;103478.88;;;9.93;65.91
51289;BME280;37372;52.294;5.152;2023-02-11T14:41:47;103474.25;;;9.94;65.71
51289;BME280;37372;52.294;5.152;2023-02-11T14:44:27;103473.31;;;9.85;66.75
51289;BME280;37372;52.294;5.152;2023-02-11T14:46:54;103474.19;;;9.60;67.25
51289;BME280;37372;52.294;5.152;2023-02-11T14:49:26;103470.47;;;9.69;66.29
51289;BME280;37372;52.294;5.152;2023-02-11T14:52:23;103470.34;;;9.53;67.76
51289;BME280;37372;52.294;5.152;2023-02-11T14:54:47;103482.13;;;9.71;67.04
51289;BME280;37372;52.294;5.152;2023-02-11T14:57:17;103481.81;;;9.48;68.07
51289;BME280;37372;52.294;5.152;2023-02-11T15:00:01;103479.94;;;9.48;68.05
51289;BME280;37372;52.294;5.152;2023-02-11T15:02:31;103487.19;;;9.58;66.81
51289;BME280;37372;52.294;5.152;2023-02-11T15:05:32;103489.81;;;9.41;68.14
51289;BME280;37372;52.294;5.152;2023-02-11T15:08:00;103487.38;;;9.38;68.27
51289;BME280;37372;52.294;5.152;2023-02-11T15:12:55;103489.47;;;9.44;68.34
51289;BME280;37372;52.294;5.152;2023-02-11T15:15:21;103494.16;;;9.52;68.35
51289;BME280;37372;52.294;5.152;2023-02-11T15:17:48;103492.28;;;9.53;67.75
51289;BME280;37372;52.294;5.152;2023-02-11T15:20:40;103496.81;;;9.62;67.19
51289;BME280;37372;52.294;5.152;2023-02-11T15:23:07;103491.53;;;9.42;68.07